createdAt,value
2018-12-14T00:02:46.422Z,14.73
2018-12-14T00:05:49.997Z,14.60
2018-12-14T00:08:53.507Z,14.90
2018-12-14T00:11:57.022Z,14.57
2018-12-14T00:15:00.551Z,14.03
2018-12-14T00:18:04.038Z,15.13
2018-12-14T00:21:08.145Z,14.33
2018-12-14T00:24:11.630Z,15.37
2018-12-14T00:27:15.320Z,13.53
2018-12-14T00:30:18.847Z,13.40
2018-12-14T00:33:22.365Z,13.40
2018-12-14T00:36:26.040Z,13.97
2018-12-14T00:39:29.643Z,13.63
2018-12-14T00:42:33.105Z,13.57
2018-12-14T00:45:36.567Z,13.97
2018-12-14T00:48:40.127Z,14.63
2018-12-14T00:51:43.638Z,15.10
2018-12-14T00:54:47.105Z,16.67
2018-12-14T00:57:50.650Z,15.23
2018-12-14T01:00:54.165Z,16.00
2018-12-14T01:03:57.650Z,15.93
2018-12-14T01:07:01.216Z,15.97
2018-12-14T01:10:05.222Z,15.40
2018-12-14T01:13:08.704Z,16.20
2018-12-14T01:16:12.229Z,16.30
2018-12-14T01:19:15.801Z,15.40
2018-12-14T01:22:19.279Z,16.67
2018-12-14T01:25:22.805Z,16.20
2018-12-14T01:28:26.282Z,16.70
2018-12-14T01:31:29.754Z,15.93
2018-12-14T01:34:33.250Z,17.60
2018-12-14T01:37:36.726Z,16.13
2018-12-14T01:40:40.297Z,16.30
2018-12-14T01:43:43.771Z,16.07
2018-12-14T01:46:47.286Z,15.03
2018-12-14T01:49:50.777Z,16.25
2018-12-14T01:52:54.316Z,17.40
2018-12-14T01:55:57.895Z,16.53
2018-12-14T01:59:01.437Z,15.43
2018-12-14T02:02:04.956Z,15.97
2018-12-14T02:05:08.540Z,16.80
2018-12-14T02:08:12.085Z,16.80
2018-12-14T02:11:15.600Z,16.20
2018-12-14T02:14:19.066Z,17.20
2018-12-14T02:17:22.644Z,16.40
2018-12-14T02:20:26.154Z,15.60
2018-12-14T02:23:29.660Z,17.17
2018-12-14T02:26:33.146Z,15.73
2018-12-14T02:29:36.754Z,15.93
2018-12-14T02:32:40.381Z,16.60
2018-12-14T02:35:43.940Z,16.10
2018-12-14T02:38:47.596Z,15.90
2018-12-14T02:41:51.093Z,16.23
2018-12-14T02:44:54.540Z,17.37
2018-12-14T02:47:58.040Z,17.47
2018-12-14T02:51:01.554Z,15.27
2018-12-14T02:54:05.248Z,16.23
2018-12-14T02:57:08.866Z,15.93
2018-12-14T03:00:12.552Z,15.55
2018-12-14T03:03:16.071Z,15.30
2018-12-14T03:06:19.699Z,16.57
2018-12-14T03:09:23.477Z,17.70
2018-12-14T03:12:26.995Z,16.07
2018-12-14T03:15:30.590Z,15.93
2018-12-14T03:18:34.116Z,17.60
2018-12-14T03:27:14.792Z,15.73
2018-12-14T03:30:18.302Z,16.73
2018-12-14T03:33:21.828Z,15.10
2018-12-14T03:36:25.433Z,16.27
2018-12-14T03:39:29.143Z,16.57
2018-12-14T03:42:34.603Z,15.38
2018-12-14T03:51:11.964Z,15.37
2018-12-14T03:54:15.477Z,15.87
2018-12-14T03:57:18.973Z,15.50
2018-12-14T04:00:22.646Z,16.20
2018-12-14T04:03:26.117Z,16.43
2018-12-14T04:06:29.878Z,17.17
2018-12-14T04:09:33.357Z,16.03
2018-12-14T04:12:41.510Z,16.40
2018-12-14T04:15:42.437Z,15.30
2018-12-14T04:18:46.039Z,16.35
2018-12-14T04:21:49.527Z,16.90
2018-12-14T04:24:54.506Z,18.10
2018-12-14T04:27:58.236Z,16.93
2018-12-14T04:31:01.855Z,16.73
2018-12-14T04:34:05.388Z,16.93
2018-12-14T04:37:09.036Z,16.37
2018-12-14T04:40:12.596Z,16.50
2018-12-14T04:43:16.077Z,17.50
2018-12-14T04:46:20.353Z,16.57
2018-12-14T04:49:24.101Z,17.02
2018-12-14T04:52:27.633Z,16.20
2018-12-14T04:55:31.167Z,16.77
2018-12-14T04:58:34.707Z,15.90
2018-12-14T05:01:39.765Z,17.00
2018-12-14T05:04:43.298Z,17.20
2018-12-14T05:07:46.763Z,18.75
2018-12-14T05:10:50.298Z,17.60
2018-12-14T05:13:53.862Z,18.87
2018-12-14T05:16:57.578Z,18.75
2018-12-14T05:20:01.208Z,19.60
2018-12-14T05:23:04.683Z,18.80
2018-12-14T05:26:09.077Z,17.80
2018-12-14T05:29:12.568Z,18.30
2018-12-14T05:32:16.047Z,18.40
2018-12-14T05:35:19.549Z,19.50
2018-12-14T05:38:23.099Z,19.97
2018-12-14T05:41:26.757Z,17.87
2018-12-14T05:44:30.267Z,17.57
2018-12-14T05:47:33.816Z,17.67
2018-12-14T05:50:37.373Z,17.50
2018-12-14T05:53:40.975Z,18.37
2018-12-14T05:56:44.579Z,19.00
2018-12-14T05:59:48.067Z,18.90
2018-12-14T06:02:51.534Z,17.37
2018-12-14T06:05:55.070Z,18.50
2018-12-14T06:08:58.782Z,18.90
2018-12-14T06:12:02.998Z,18.37
2018-12-14T06:15:06.876Z,17.40
2018-12-14T06:18:10.509Z,17.70
2018-12-14T06:21:15.361Z,17.57
2018-12-14T06:24:18.802Z,18.60
2018-12-14T06:27:22.406Z,17.77
2018-12-14T06:30:25.884Z,17.00
2018-12-14T06:33:29.340Z,18.10
2018-12-14T06:36:32.893Z,17.40
2018-12-14T06:39:36.541Z,17.00
2018-12-14T06:42:40.354Z,16.97
2018-12-14T06:45:43.835Z,16.90
2018-12-14T06:48:47.519Z,17.85
2018-12-14T06:51:51.051Z,17.60
2018-12-14T06:54:54.635Z,18.20
2018-12-14T06:57:58.103Z,16.27
2018-12-14T07:01:01.704Z,18.00
2018-12-14T07:04:05.436Z,15.77
2018-12-14T07:07:09.428Z,17.15
2018-12-14T07:10:13.129Z,17.40
2018-12-14T07:13:21.868Z,17.77
2018-12-14T07:16:22.290Z,16.17
2018-12-14T07:19:25.839Z,16.33
2018-12-14T07:22:29.430Z,17.60
2018-12-14T07:25:32.954Z,16.97
2018-12-14T07:28:36.480Z,17.50
2018-12-14T07:31:40.639Z,16.73
2018-12-14T07:34:44.245Z,17.37
2018-12-14T07:37:47.767Z,18.70
2018-12-14T07:40:51.320Z,16.40
2018-12-14T07:43:54.850Z,18.35
2018-12-14T07:46:58.293Z,16.67
2018-12-14T07:50:01.793Z,17.00
2018-12-14T07:53:09.113Z,18.60
2018-12-14T07:56:10.890Z,18.00
2018-12-14T07:59:14.729Z,16.48
2018-12-14T08:02:18.396Z,18.27
2018-12-14T08:05:21.914Z,17.90
2018-12-14T08:08:25.419Z,17.00
2018-12-14T08:11:29.033Z,17.03
2018-12-14T08:14:32.556Z,17.93
2018-12-14T08:17:36.032Z,16.90
2018-12-14T08:26:13.051Z,16.40
2018-12-14T08:29:16.796Z,16.65
2018-12-14T08:32:20.356Z,16.80
2018-12-14T08:35:23.814Z,16.20
2018-12-14T08:38:27.699Z,16.93
2018-12-14T08:41:31.343Z,16.03
2018-12-14T08:44:34.832Z,17.07
2018-12-14T08:47:38.394Z,16.63
2018-12-14T08:50:42.130Z,16.37
2018-12-14T08:53:45.836Z,16.52
2018-12-14T08:56:49.359Z,15.78
2018-12-14T08:59:52.968Z,17.37
2018-12-14T09:02:56.544Z,15.75
2018-12-14T09:05:59.967Z,16.57
2018-12-14T09:09:04.689Z,15.97
2018-12-14T09:12:08.510Z,16.33
2018-12-14T09:15:12.074Z,15.37
2018-12-14T09:18:15.706Z,15.67
2018-12-14T09:21:19.359Z,15.27
2018-12-14T09:24:22.854Z,14.73
2018-12-14T09:27:26.336Z,15.70
2018-12-14T09:30:30.020Z,15.83
2018-12-14T09:33:33.474Z,15.80
2018-12-14T09:36:36.971Z,15.37
2018-12-14T09:39:41.022Z,14.37
2018-12-14T09:42:44.577Z,15.40
2018-12-14T09:45:48.115Z,15.00
2018-12-14T09:48:51.769Z,14.87
2018-12-14T09:51:55.180Z,14.53
2018-12-14T09:54:58.907Z,14.70
2018-12-14T09:58:02.494Z,15.03
2018-12-14T10:01:06.048Z,14.45
2018-12-14T10:04:10.194Z,14.78
2018-12-14T10:07:13.906Z,12.50
2018-12-14T10:10:17.412Z,13.63
2018-12-14T10:13:21.251Z,14.70
2018-12-14T10:16:24.825Z,13.97
2018-12-14T10:19:28.354Z,13.00
2018-12-14T10:22:31.924Z,13.50
2018-12-14T10:25:35.366Z,12.20
2018-12-14T10:28:39.381Z,12.20
2018-12-14T10:31:42.886Z,13.80
2018-12-14T10:34:46.433Z,12.50
2018-12-14T10:37:49.950Z,13.53
2018-12-14T10:40:53.524Z,13.65
2018-12-14T10:43:57.061Z,13.08
2018-12-14T10:47:00.778Z,12.97
2018-12-14T10:50:05.077Z,12.27
2018-12-14T10:53:13.069Z,12.90
2018-12-14T10:56:16.565Z,13.10
2018-12-14T10:59:20.046Z,12.50
2018-12-14T11:02:23.885Z,11.30
2018-12-14T11:05:27.475Z,12.15
2018-12-14T11:08:31.130Z,13.33
2018-12-14T11:11:34.701Z,12.63
2018-12-14T11:14:38.193Z,12.37
2018-12-14T11:17:41.669Z,12.20
2018-12-14T11:20:45.109Z,12.33
2018-12-14T11:23:48.833Z,12.50
2018-12-14T11:26:53.576Z,12.43
2018-12-14T11:29:57.487Z,12.28
2018-12-14T11:33:00.944Z,12.03
2018-12-14T11:36:04.455Z,11.57
2018-12-14T11:39:08.024Z,12.40
2018-12-14T11:42:11.543Z,11.80
2018-12-14T11:45:15.071Z,11.60
2018-12-14T11:48:18.613Z,12.35
2018-12-14T11:51:25.118Z,12.10
2018-12-14T11:54:28.582Z,11.87
2018-12-14T11:57:32.079Z,12.90
2018-12-14T12:00:35.595Z,12.20
2018-12-14T12:03:42.796Z,12.73
2018-12-14T12:06:44.635Z,11.40
2018-12-14T12:09:49.992Z,11.85
2018-12-14T12:12:53.505Z,12.40
2018-12-14T12:15:57.122Z,11.38
2018-12-14T12:19:00.660Z,11.67
2018-12-14T12:22:04.256Z,11.23
2018-12-14T12:25:07.839Z,11.07
2018-12-14T12:28:11.359Z,11.90
2018-12-14T12:31:14.908Z,10.40
2018-12-14T12:34:18.533Z,10.67
2018-12-14T12:37:22.068Z,11.60
2018-12-14T12:40:25.594Z,11.50
2018-12-14T12:43:29.139Z,10.57
2018-12-14T12:46:32.578Z,10.40
2018-12-14T12:49:36.126Z,11.77
2018-12-14T12:52:39.639Z,11.30
2018-12-14T12:55:43.109Z,10.70
2018-12-14T12:58:46.629Z,9.70
2018-12-14T13:01:50.268Z,10.10
2018-12-14T13:04:54.024Z,10.37
2018-12-14T13:07:57.518Z,10.58
2018-12-14T13:11:01.004Z,10.90
2018-12-14T13:14:04.594Z,11.27
2018-12-14T13:17:08.114Z,10.90
2018-12-14T13:20:11.659Z,11.37
2018-12-14T13:23:15.143Z,11.20
2018-12-14T13:26:18.769Z,12.07
2018-12-14T13:29:22.328Z,11.60
2018-12-14T13:32:25.834Z,11.33
2018-12-14T13:35:29.407Z,11.80
2018-12-14T13:38:32.900Z,11.10
2018-12-14T13:41:36.565Z,11.53
2018-12-14T13:44:46.488Z,11.83
2018-12-14T13:47:47.841Z,10.30
2018-12-14T13:50:51.481Z,11.30
2018-12-14T13:53:55.012Z,11.13
2018-12-14T13:56:58.503Z,11.63
2018-12-14T14:00:02.081Z,11.60
2018-12-14T14:03:05.689Z,9.17
2018-12-14T14:06:09.221Z,10.63
2018-12-14T14:09:12.753Z,11.03
2018-12-14T14:12:16.296Z,10.90
2018-12-14T14:15:21.029Z,10.17
2018-12-14T14:18:24.797Z,11.40
2018-12-14T14:21:29.234Z,11.40
2018-12-14T14:24:32.937Z,10.40
2018-12-14T14:27:36.777Z,11.90
2018-12-14T14:30:42.008Z,10.90
2018-12-14T14:33:45.534Z,11.30
2018-12-14T14:36:49.101Z,10.90
2018-12-14T14:39:52.677Z,10.60
2018-12-14T14:42:56.216Z,11.90
2018-12-14T14:46:00.303Z,11.53
2018-12-14T14:49:03.794Z,11.17
2018-12-14T14:52:07.496Z,10.60
2018-12-14T14:55:11.001Z,10.95
2018-12-14T14:58:14.527Z,10.77
2018-12-14T15:01:18.388Z,11.27
2018-12-14T15:04:21.935Z,11.40
2018-12-14T15:07:25.693Z,10.80
2018-12-14T15:10:29.352Z,11.40
2018-12-14T15:13:32.921Z,11.77
2018-12-14T15:16:36.473Z,10.83
2018-12-14T15:19:39.996Z,10.60
2018-12-14T15:22:43.474Z,11.07
2018-12-14T15:25:47.027Z,12.25
2018-12-14T15:28:50.632Z,12.60
2018-12-14T15:31:54.431Z,11.73
2018-12-14T15:34:59.263Z,12.57
2018-12-14T15:38:02.999Z,11.90
2018-12-14T15:41:06.784Z,12.50
2018-12-14T15:44:11.269Z,14.93
2018-12-14T15:47:14.864Z,17.50
2018-12-14T15:50:18.403Z,13.00
2018-12-14T15:53:22.122Z,13.50
2018-12-14T15:56:25.648Z,14.43
2018-12-14T15:59:29.209Z,13.10
2018-12-14T16:02:32.797Z,14.20
2018-12-14T16:05:36.466Z,14.23
2018-12-14T16:08:40.003Z,12.80
2018-12-14T16:11:43.574Z,13.83
2018-12-14T16:14:47.428Z,13.25
2018-12-14T16:17:50.944Z,13.30
2018-12-14T16:20:54.489Z,13.85
2018-12-14T16:23:58.095Z,14.07
2018-12-14T16:27:01.648Z,14.67
2018-12-14T16:30:06.042Z,15.23
2018-12-14T16:33:09.708Z,17.70
2018-12-14T16:36:13.219Z,14.95
2018-12-14T16:39:16.772Z,13.90
2018-12-14T16:42:20.280Z,13.90
2018-12-14T16:45:26.619Z,21.03
2018-12-14T16:48:29.368Z,16.30
2018-12-14T16:51:32.921Z,14.27
2018-12-14T16:54:36.698Z,15.40
2018-12-14T16:57:40.241Z,16.20
2018-12-14T17:00:43.784Z,15.27
2018-12-14T17:03:47.447Z,15.13
2018-12-14T17:06:51.077Z,14.07
2018-12-14T17:09:54.631Z,14.70
2018-12-14T17:12:58.149Z,14.17
2018-12-14T17:16:01.824Z,14.73
2018-12-14T17:19:05.569Z,14.83
2018-12-14T17:22:09.119Z,15.70
2018-12-14T17:25:12.857Z,15.13
2018-12-14T17:28:16.433Z,15.70
2018-12-14T17:31:19.963Z,14.40
2018-12-14T17:34:23.420Z,15.37
2018-12-14T17:37:26.983Z,16.33
2018-12-14T17:40:30.591Z,16.67
2018-12-14T17:43:34.342Z,16.10
2018-12-14T17:46:38.240Z,16.77
2018-12-14T17:49:42.570Z,15.80
2018-12-14T17:52:46.205Z,16.70
2018-12-14T17:55:49.729Z,17.53
2018-12-14T17:58:53.398Z,18.20
2018-12-14T18:01:57.045Z,19.67
2018-12-14T18:05:00.826Z,23.22
2018-12-14T18:08:04.320Z,23.50
2018-12-14T18:11:08.019Z,18.07
2018-12-14T18:14:11.644Z,15.85
2018-12-14T18:17:15.389Z,17.40
2018-12-14T18:20:18.909Z,16.37
2018-12-14T18:23:22.506Z,17.00
2018-12-14T18:26:25.968Z,16.33
2018-12-14T18:29:29.488Z,16.50
2018-12-14T18:32:33.028Z,18.20
2018-12-14T18:35:36.543Z,19.47
2018-12-14T18:38:40.042Z,17.87
2018-12-14T18:41:43.608Z,17.63
2018-12-14T18:44:47.158Z,17.67
2018-12-14T18:47:50.742Z,17.85
2018-12-14T18:50:54.303Z,18.05
2018-12-14T18:53:59.963Z,17.83
2018-12-14T18:57:03.534Z,18.30
2018-12-14T19:00:09.018Z,19.07
2018-12-14T19:03:12.663Z,18.30
2018-12-14T19:06:16.252Z,17.43
2018-12-14T19:09:19.822Z,18.45
2018-12-14T19:12:30.098Z,18.03
2018-12-14T19:15:33.600Z,19.60
2018-12-14T19:18:37.369Z,20.23
2018-12-14T19:21:41.108Z,18.77
2018-12-14T19:24:44.579Z,18.57
2018-12-14T19:27:48.698Z,17.05
2018-12-14T19:30:52.123Z,17.90
2018-12-14T19:33:55.666Z,17.53
2018-12-14T19:36:59.285Z,17.40
2018-12-14T19:40:02.981Z,18.77
2018-12-14T19:43:06.567Z,17.13
2018-12-14T19:46:10.162Z,16.80
2018-12-14T19:49:13.738Z,17.90
2018-12-14T19:52:17.473Z,16.63
2018-12-14T19:55:21.072Z,17.00
2018-12-14T19:58:24.729Z,19.30
2018-12-14T20:01:28.432Z,18.47
2018-12-14T20:04:32.063Z,18.67
2018-12-14T20:07:35.743Z,16.87
2018-12-14T20:10:39.488Z,15.80
2018-12-14T20:13:43.007Z,18.25
2018-12-14T20:16:46.654Z,17.93
2018-12-14T20:19:50.228Z,17.67
2018-12-14T20:22:53.734Z,17.73
2018-12-14T20:25:57.243Z,17.77
2018-12-14T20:29:00.755Z,16.73
2018-12-14T20:32:04.314Z,18.00
2018-12-14T20:35:08.340Z,16.13
2018-12-14T20:38:12.413Z,16.70
2018-12-14T20:41:15.985Z,16.40
2018-12-14T20:44:19.662Z,17.40
2018-12-14T20:47:23.191Z,17.25
2018-12-14T20:50:26.758Z,18.10
2018-12-14T20:53:30.402Z,16.70
2018-12-14T20:56:33.930Z,16.97
2018-12-14T20:59:37.518Z,17.20
2018-12-14T21:02:41.093Z,17.20
2018-12-14T21:05:44.602Z,17.27
2018-12-14T21:08:48.194Z,17.05
2018-12-14T21:11:51.773Z,17.40
2018-12-14T21:14:55.349Z,16.60
2018-12-14T21:17:58.897Z,16.90
2018-12-14T21:21:02.593Z,16.67
2018-12-14T21:24:06.191Z,17.20
2018-12-14T21:27:09.644Z,17.40
2018-12-14T21:30:13.566Z,16.50
2018-12-14T21:33:17.128Z,16.33
2018-12-14T21:36:23.642Z,17.27
2018-12-14T21:39:27.283Z,17.57
2018-12-14T21:42:30.974Z,17.07
2018-12-14T21:45:34.562Z,15.97
2018-12-14T21:48:38.239Z,17.50
2018-12-14T21:57:27.264Z,15.50
2018-12-14T22:00:30.796Z,16.33
2018-12-14T22:03:34.339Z,17.35
2018-12-14T22:06:37.797Z,15.53
2018-12-14T22:09:41.340Z,16.23
2018-12-14T22:12:44.995Z,16.17
2018-12-14T22:15:48.522Z,15.70
2018-12-14T22:18:51.972Z,15.03
2018-12-14T22:21:55.548Z,15.70
2018-12-14T22:24:59.196Z,15.20
2018-12-14T22:28:02.888Z,14.83
2018-12-14T22:31:06.737Z,14.40
2018-12-14T22:34:10.207Z,13.85
2018-12-14T22:37:14.182Z,13.33
2018-12-14T22:40:18.503Z,14.27
2018-12-14T22:43:22.118Z,14.90
2018-12-14T22:46:25.712Z,15.17
2018-12-14T22:49:29.161Z,14.30
2018-12-14T22:52:32.668Z,13.53
2018-12-14T22:55:36.278Z,14.53
2018-12-14T22:58:39.963Z,15.33
2018-12-14T23:01:43.837Z,13.98
2018-12-14T23:04:47.323Z,13.00
2018-12-14T23:07:50.856Z,14.83
2018-12-14T23:10:54.513Z,14.70
2018-12-14T23:13:58.038Z,15.03
2018-12-14T23:17:01.771Z,15.28
2018-12-14T23:20:05.748Z,15.53
2018-12-14T23:23:09.262Z,14.40
2018-12-14T23:26:12.854Z,14.47
2018-12-14T23:29:16.423Z,14.87
2018-12-14T23:32:19.966Z,14.53
2018-12-14T23:35:23.542Z,14.35
2018-12-14T23:38:27.132Z,15.27
2018-12-14T23:41:30.775Z,15.05
2018-12-14T23:44:34.481Z,14.33
2018-12-14T23:47:38.174Z,14.70
2018-12-14T23:56:15.434Z,14.80
2018-12-14T23:59:18.921Z,14.67
